createdAt,value
2017-10-08T00:00:31.242Z,969.64
2017-10-08T00:01:31.234Z,969.58
2017-10-08T00:02:31.227Z,969.6
2017-10-08T00:03:31.220Z,969.59
2017-10-08T00:04:31.213Z,969.57
2017-10-08T00:05:31.206Z,969.66
2017-10-08T00:06:31.201Z,969.65
2017-10-08T00:07:31.192Z,969.61
2017-10-08T00:08:31.184Z,969.58
2017-10-08T00:09:31.177Z,969.62
2017-10-08T00:10:31.172Z,969.62
2017-10-08T00:11:31.162Z,969.59
2017-10-08T00:12:31.255Z,969.61
2017-10-08T00:13:31.148Z,969.63
2017-10-08T00:14:31.142Z,969.65
2017-10-08T00:15:31.133Z,969.63
2017-10-08T00:16:31.127Z,969.65
2017-10-08T00:17:31.119Z,969.7
2017-10-08T00:18:31.112Z,969.73
2017-10-08T00:19:31.105Z,969.75
2017-10-08T00:20:31.098Z,969.81
2017-10-08T00:21:31.091Z,969.76
2017-10-08T00:22:31.094Z,969.81
2017-10-08T00:23:31.076Z,969.81
2017-10-08T00:24:31.068Z,969.83
2017-10-08T00:25:31.061Z,969.85
2017-10-08T00:26:31.053Z,969.83
2017-10-08T00:27:31.147Z,969.83
2017-10-08T00:28:31.038Z,969.87
2017-10-08T00:29:31.032Z,969.86
2017-10-08T00:30:31.025Z,969.84
2017-10-08T00:31:31.018Z,969.85
2017-10-08T00:32:31.112Z,969.81
2017-10-08T00:33:31.004Z,969.76
2017-10-08T00:34:31.000Z,969.76
2017-10-08T00:35:30.988Z,969.72
2017-10-08T00:36:31.132Z,969.7
2017-10-08T00:37:30.976Z,969.72
2017-10-08T00:38:30.969Z,969.71
2017-10-08T00:39:30.963Z,969.66
2017-10-08T00:40:30.953Z,969.6
2017-10-08T00:41:30.947Z,969.54
2017-10-08T00:42:30.939Z,969.57
2017-10-08T00:43:30.931Z,969.57
2017-10-08T00:44:30.925Z,969.55
2017-10-08T00:45:30.918Z,969.52
2017-10-08T00:46:30.910Z,969.51
2017-10-08T00:47:30.901Z,969.54
2017-10-08T00:48:30.896Z,969.5
2017-10-08T00:49:30.887Z,969.5
2017-10-08T00:50:30.883Z,969.48
2017-10-08T00:51:30.873Z,969.42
2017-10-08T00:52:31.020Z,969.35
2017-10-08T00:53:30.859Z,969.37
2017-10-08T00:54:30.852Z,969.39
2017-10-08T00:55:30.846Z,969.36
2017-10-08T00:56:30.837Z,969.42
2017-10-08T00:57:30.831Z,969.43
2017-10-08T00:58:30.824Z,969.41
2017-10-08T00:59:30.817Z,969.38
2017-10-08T01:00:30.812Z,969.35
2017-10-08T01:01:30.802Z,969.33
2017-10-08T01:02:30.795Z,969.33
2017-10-08T01:03:30.788Z,969.28
2017-10-08T01:04:30.884Z,969.29
2017-10-08T01:05:30.773Z,969.29
2017-10-08T01:06:30.766Z,969.25
2017-10-08T01:07:30.758Z,969.28
2017-10-08T01:08:30.752Z,969.31
2017-10-08T01:09:30.745Z,969.34
2017-10-08T01:10:30.737Z,969.35
2017-10-08T01:11:30.730Z,969.34
2017-10-08T01:12:30.722Z,969.35
2017-10-08T01:13:30.716Z,969.39
2017-10-08T01:14:30.709Z,969.39
2017-10-08T01:15:30.701Z,969.4
2017-10-08T01:16:30.795Z,969.38
2017-10-08T01:17:30.688Z,969.38
2017-10-08T01:18:30.682Z,969.38
2017-10-08T01:19:30.774Z,969.38
2017-10-08T01:20:30.817Z,969.29
2017-10-08T01:21:30.659Z,969.32
2017-10-08T01:22:30.653Z,969.35
2017-10-08T01:23:30.644Z,969.36
2017-10-08T01:24:30.737Z,969.37
2017-10-08T01:25:30.631Z,969.37
2017-10-08T01:26:30.622Z,969.39
2017-10-08T01:27:30.615Z,969.38
2017-10-08T01:28:30.609Z,969.34
2017-10-08T01:29:30.602Z,969.43
2017-10-08T01:30:30.595Z,969.37
2017-10-08T01:31:30.688Z,969.43
2017-10-08T01:32:30.581Z,969.46
2017-10-08T01:33:30.573Z,969.43
2017-10-08T01:34:30.567Z,969.4
2017-10-08T01:35:30.558Z,969.33
2017-10-08T01:36:30.552Z,969.34
2017-10-08T01:37:30.645Z,969.24
2017-10-08T01:38:30.538Z,969.18
2017-10-08T01:39:30.530Z,969.11
2017-10-08T01:40:30.673Z,969.1
2017-10-08T01:41:30.516Z,969.11
2017-10-08T01:42:30.610Z,969.15
2017-10-08T01:43:30.502Z,969.16
2017-10-08T01:44:30.496Z,969.19
2017-10-08T01:45:30.489Z,969.2
2017-10-08T01:46:30.482Z,969.2
2017-10-08T01:47:30.475Z,969.16
2017-10-08T01:48:30.567Z,969.2
2017-10-08T01:49:30.460Z,969.24
2017-10-08T01:50:30.453Z,969.25
2017-10-08T01:51:30.446Z,969.22
2017-10-08T01:52:30.437Z,969.22
2017-10-08T01:53:30.532Z,969.26
2017-10-08T01:54:30.424Z,969.26
2017-10-08T01:55:30.418Z,969.25
2017-10-08T01:56:30.409Z,969.28
2017-10-08T01:57:30.404Z,969.39
2017-10-08T01:58:30.398Z,969.43
2017-10-08T01:59:30.389Z,969.39
2017-10-08T02:00:30.382Z,969.38
2017-10-08T02:01:30.375Z,969.39
2017-10-08T02:02:30.369Z,969.42
2017-10-08T02:03:30.460Z,969.4
2017-10-08T02:04:30.354Z,969.42
2017-10-08T02:05:30.347Z,969.39
2017-10-08T02:06:30.340Z,969.38
2017-10-08T02:07:30.334Z,969.34
2017-10-08T02:08:30.426Z,969.29
2017-10-08T02:09:30.420Z,969.36
2017-10-08T02:10:30.312Z,969.22
2017-10-08T02:11:30.306Z,969.26
2017-10-08T02:12:30.299Z,969.22
2017-10-08T02:13:30.292Z,969.2
2017-10-08T02:14:30.284Z,969.11
2017-10-08T02:15:30.277Z,969.15
2017-10-08T02:16:30.269Z,969.13
2017-10-08T02:17:30.264Z,969.08
2017-10-08T02:18:30.256Z,969.02
2017-10-08T02:19:30.348Z,969.02
2017-10-08T02:20:30.243Z,969.01
2017-10-08T02:21:30.236Z,969.01
2017-10-08T02:22:30.328Z,968.97
2017-10-08T02:23:30.220Z,969
2017-10-08T02:24:30.213Z,969.01
2017-10-08T02:25:30.206Z,969.01
2017-10-08T02:26:30.200Z,968.94
2017-10-08T02:27:30.293Z,968.97
2017-10-08T02:28:30.185Z,968.93
2017-10-08T02:29:30.279Z,968.92
2017-10-08T02:30:30.171Z,968.9
2017-10-08T02:31:30.164Z,968.88
2017-10-08T02:32:30.157Z,968.86
2017-10-08T02:33:30.152Z,968.89
2017-10-08T02:34:30.144Z,968.91
2017-10-08T02:35:30.236Z,968.92
2017-10-08T02:36:30.129Z,968.88
2017-10-08T02:37:30.121Z,968.85
2017-10-08T02:38:30.116Z,968.83
2017-10-08T02:39:30.106Z,968.8
2017-10-08T02:40:30.100Z,968.83
2017-10-08T02:41:30.094Z,968.74
2017-10-08T02:42:30.087Z,968.72
2017-10-08T02:43:30.229Z,968.75
2017-10-08T02:44:30.073Z,968.75
2017-10-08T02:45:30.066Z,968.82
2017-10-08T02:46:30.060Z,968.85
2017-10-08T02:47:30.051Z,968.78
2017-10-08T02:48:30.050Z,968.86
2017-10-08T02:49:30.038Z,968.85
2017-10-08T02:50:30.030Z,968.86
2017-10-08T02:51:30.022Z,968.82
2017-10-08T02:52:30.019Z,968.8
2017-10-08T02:53:30.167Z,968.84
2017-10-08T02:54:30.003Z,968.8
2017-10-08T02:55:29.997Z,968.83
2017-10-08T02:56:29.989Z,968.83
2017-10-08T02:57:29.981Z,968.88
2017-10-08T02:58:29.978Z,968.87
2017-10-08T02:59:29.967Z,968.93
2017-10-08T03:00:29.960Z,968.93
2017-10-08T03:01:29.952Z,968.96
2017-10-08T03:02:29.948Z,968.95
2017-10-08T03:03:29.939Z,968.95
2017-10-08T03:04:29.932Z,968.94
2017-10-08T03:05:29.924Z,968.92
2017-10-08T03:06:29.916Z,968.94
2017-10-08T03:07:29.911Z,968.91
2017-10-08T03:08:29.903Z,969
2017-10-08T03:09:29.896Z,969.03
2017-10-08T03:10:29.889Z,969.05
2017-10-08T03:11:29.881Z,969.09
2017-10-08T03:12:29.875Z,969.06
2017-10-08T03:13:29.868Z,969.04
2017-10-08T03:14:29.861Z,969.06
2017-10-08T03:15:29.855Z,969.07
2017-10-08T03:16:29.847Z,969.08
2017-10-08T03:17:29.840Z,969.1
2017-10-08T03:18:29.832Z,969.04
2017-10-08T03:19:29.826Z,968.99
2017-10-08T03:20:29.819Z,969.07
2017-10-08T03:21:29.812Z,969.05
2017-10-08T03:22:29.805Z,969.08
2017-10-08T03:23:29.798Z,969.09
2017-10-08T03:24:29.791Z,969.13
2017-10-08T03:25:29.784Z,969.09
2017-10-08T03:26:29.776Z,969.1
2017-10-08T03:27:29.768Z,969.08
2017-10-08T03:28:29.762Z,969.1
2017-10-08T03:29:29.907Z,969.17
2017-10-08T03:30:29.750Z,969.1
2017-10-08T03:31:29.741Z,969.11
2017-10-08T03:32:29.884Z,969.13
2017-10-08T03:33:29.727Z,969.08
2017-10-08T03:34:29.719Z,969.1
2017-10-08T03:35:29.712Z,969.08
2017-10-08T03:36:29.706Z,969.08
2017-10-08T03:37:29.699Z,969.08
2017-10-08T03:38:29.690Z,969.07
2017-10-08T03:39:29.684Z,968.99
2017-10-08T03:40:29.678Z,968.99
2017-10-08T03:41:29.671Z,969.03
2017-10-08T03:42:29.664Z,969.03
2017-10-08T03:43:29.658Z,969.06
2017-10-08T03:44:29.650Z,969.02
2017-10-08T03:45:29.743Z,969.05
2017-10-08T03:46:29.635Z,968.99
2017-10-08T03:47:29.629Z,969.01
2017-10-08T03:48:29.621Z,969
2017-10-08T03:49:29.614Z,968.99
2017-10-08T03:50:29.706Z,969.01
2017-10-08T03:51:29.599Z,968.95
2017-10-08T03:52:29.592Z,968.92
2017-10-08T03:53:29.586Z,968.86
2017-10-08T03:54:29.579Z,968.87
2017-10-08T03:55:29.572Z,968.78
2017-10-08T03:56:29.564Z,968.81
2017-10-08T03:57:29.557Z,968.78
2017-10-08T03:58:29.551Z,968.77
2017-10-08T03:59:29.543Z,968.8
2017-10-08T04:00:29.535Z,968.77
2017-10-08T04:01:29.528Z,968.72
2017-10-08T04:02:29.522Z,968.76
2017-10-08T04:03:29.513Z,968.75
2017-10-08T04:04:29.507Z,968.84
2017-10-08T04:05:29.500Z,968.85
2017-10-08T04:06:29.493Z,968.88
2017-10-08T04:07:29.486Z,968.93
2017-10-08T04:08:29.477Z,968.99
2017-10-08T04:09:29.472Z,969
2017-10-08T04:10:29.615Z,969.01
2017-10-08T04:11:29.456Z,968.98
2017-10-08T04:12:29.454Z,969.05
2017-10-08T04:13:29.444Z,969.06
2017-10-08T04:14:29.436Z,969.04
2017-10-08T04:15:29.428Z,969.09
2017-10-08T04:16:29.424Z,969.06
2017-10-08T04:17:29.415Z,969.06
2017-10-08T04:18:29.406Z,968.98
2017-10-08T04:19:29.417Z,969
2017-10-08T04:20:29.402Z,968.97
2017-10-08T04:21:29.388Z,968.98
2017-10-08T04:22:29.380Z,968.93
2017-10-08T04:23:29.372Z,968.9
2017-10-08T04:24:29.365Z,968.86
2017-10-08T04:25:29.356Z,968.87
2017-10-08T04:26:29.351Z,968.84
2017-10-08T04:27:29.444Z,968.88
2017-10-08T04:28:29.338Z,968.89
2017-10-08T04:29:29.329Z,968.95
2017-10-08T04:30:29.322Z,969.02
2017-10-08T04:31:29.315Z,969.01
2017-10-08T04:32:29.409Z,968.97
2017-10-08T04:33:29.299Z,968.94
2017-10-08T04:34:29.293Z,968.92
2017-10-08T04:35:29.286Z,968.91
2017-10-08T04:36:29.277Z,968.91
2017-10-08T04:37:29.271Z,968.88
2017-10-08T04:38:29.264Z,968.9
2017-10-08T04:39:29.257Z,968.95
2017-10-08T04:40:29.249Z,968.93
2017-10-08T04:41:29.244Z,968.94
2017-10-08T04:42:29.235Z,968.96
2017-10-08T04:43:29.229Z,969.03
2017-10-08T04:44:29.221Z,968.95
2017-10-08T04:45:29.213Z,968.98
2017-10-08T04:46:29.207Z,969.01
2017-10-08T04:47:29.199Z,968.97
2017-10-08T04:48:29.292Z,969
2017-10-08T04:49:29.185Z,969
2017-10-08T04:50:29.178Z,969.03
2017-10-08T04:51:29.170Z,969.04
2017-10-08T04:52:29.162Z,969.04
2017-10-08T04:53:29.160Z,969.07
2017-10-08T04:54:29.249Z,969.03
2017-10-08T04:55:29.140Z,969.05
2017-10-08T04:56:29.134Z,969.08
2017-10-08T04:57:29.128Z,969.06
2017-10-08T04:58:29.119Z,969.04
2017-10-08T04:59:29.113Z,969.05
2017-10-08T05:00:29.104Z,969.06
2017-10-08T05:01:29.198Z,969.05
2017-10-08T05:02:29.090Z,969.03
2017-10-08T05:03:29.084Z,969.02
2017-10-08T05:04:29.076Z,968.98
2017-10-08T05:05:29.071Z,969.01
2017-10-08T05:06:29.062Z,968.98
2017-10-08T05:07:29.055Z,969
2017-10-08T05:08:29.047Z,969.02
2017-10-08T05:09:29.040Z,968.97
2017-10-08T05:10:29.032Z,968.98
2017-10-08T05:11:29.026Z,968.99
2017-10-08T05:12:29.019Z,969
2017-10-08T05:13:29.010Z,969.01
2017-10-08T05:14:29.005Z,969.03
2017-10-08T05:15:28.997Z,968.99
2017-10-08T05:16:28.990Z,969.04
2017-10-08T05:17:28.983Z,969
2017-10-08T05:18:29.076Z,968.95
2017-10-08T05:19:28.968Z,969.01
2017-10-08T05:20:28.961Z,968.99
2017-10-08T05:21:28.954Z,968.99
2017-10-08T05:22:28.948Z,969
2017-10-08T05:23:28.941Z,969.06
2017-10-08T05:24:28.931Z,969.02
2017-10-08T05:25:28.925Z,969.03
2017-10-08T05:26:28.920Z,969.05
2017-10-08T05:27:28.910Z,969.06
2017-10-08T05:28:29.004Z,969.07
2017-10-08T05:29:28.896Z,969.1
2017-10-08T05:30:28.988Z,969.09
2017-10-08T05:31:28.882Z,969.05
2017-10-08T05:32:28.873Z,969.08
2017-10-08T05:33:28.867Z,969.13
2017-10-08T05:34:28.960Z,969.15
2017-10-08T05:35:28.853Z,969.13
2017-10-08T05:36:28.844Z,969.12
2017-10-08T05:37:28.838Z,969.11
2017-10-08T05:38:28.830Z,969.17
2017-10-08T05:39:28.822Z,969.17
2017-10-08T05:40:28.815Z,969.18
2017-10-08T05:41:28.809Z,969.17
2017-10-08T05:42:28.801Z,969.2
2017-10-08T05:43:28.794Z,969.2
2017-10-08T05:44:28.788Z,969.17
2017-10-08T05:45:28.779Z,969.2
2017-10-08T05:46:28.771Z,969.21
2017-10-08T05:47:28.765Z,969.21
2017-10-08T05:48:28.858Z,969.16
2017-10-08T05:49:28.750Z,969.17
2017-10-08T05:50:28.743Z,969.16
2017-10-08T05:51:28.735Z,969.18
2017-10-08T05:52:28.729Z,969.25
2017-10-08T05:53:28.871Z,969.21
2017-10-08T05:54:28.715Z,969.25
2017-10-08T05:55:28.807Z,969.23
2017-10-08T05:56:28.699Z,969.22
2017-10-08T05:57:28.693Z,969.21
2017-10-08T05:58:28.685Z,969.23
2017-10-08T05:59:28.678Z,969.28
2017-10-08T06:00:28.669Z,969.29
2017-10-08T06:01:28.662Z,969.27
2017-10-08T06:02:28.654Z,969.25
2017-10-08T06:03:28.648Z,969.25
2017-10-08T06:04:28.790Z,969.17
2017-10-08T06:05:28.633Z,969.22
2017-10-08T06:06:28.626Z,969.23
2017-10-08T06:07:28.620Z,969.23
2017-10-08T06:08:28.611Z,969.22
2017-10-08T06:09:28.603Z,969.19
2017-10-08T06:10:28.597Z,969.19
2017-10-08T06:11:28.588Z,969.2
2017-10-08T06:12:28.581Z,969.22
2017-10-08T06:13:28.574Z,969.19
2017-10-08T06:14:28.568Z,969.25
2017-10-08T06:15:28.559Z,969.22
2017-10-08T06:16:28.556Z,969.19
2017-10-08T06:17:28.546Z,969.29
2017-10-08T06:18:28.537Z,969.25
2017-10-08T06:19:28.531Z,969.32
2017-10-08T06:20:28.675Z,969.31
2017-10-08T06:21:28.517Z,969.33
2017-10-08T06:22:28.509Z,969.31
2017-10-08T06:23:28.502Z,969.38
2017-10-08T06:24:28.493Z,969.39
2017-10-08T06:25:28.588Z,969.42
2017-10-08T06:26:28.480Z,969.47
2017-10-08T06:27:28.472Z,969.47
2017-10-08T06:28:28.466Z,969.42
2017-10-08T06:29:28.459Z,969.51
2017-10-08T06:30:28.449Z,969.47
2017-10-08T06:31:28.443Z,969.47
2017-10-08T06:32:28.436Z,969.44
2017-10-08T06:33:28.428Z,969.46
2017-10-08T06:34:28.421Z,969.48
2017-10-08T06:35:28.414Z,969.46
2017-10-08T06:36:28.406Z,969.42
2017-10-08T06:37:28.398Z,969.49
2017-10-08T06:38:28.392Z,969.51
2017-10-08T06:39:28.535Z,969.48
2017-10-08T06:40:28.377Z,969.49
2017-10-08T06:41:28.370Z,969.54
2017-10-08T06:42:28.363Z,969.49
2017-10-08T06:43:28.356Z,969.53
2017-10-08T06:44:28.348Z,969.54
2017-10-08T06:45:28.491Z,969.56
2017-10-08T06:46:28.333Z,969.53
2017-10-08T06:47:28.326Z,969.57
2017-10-08T06:48:28.320Z,969.55
2017-10-08T06:49:28.312Z,969.59
2017-10-08T06:50:28.304Z,969.57
2017-10-08T06:51:28.298Z,969.55
2017-10-08T06:52:28.291Z,969.56
2017-10-08T06:53:28.283Z,969.56
2017-10-08T06:54:28.279Z,969.57
2017-10-08T06:55:28.268Z,969.53
2017-10-08T06:56:28.261Z,969.59
2017-10-08T06:57:28.253Z,969.57
2017-10-08T06:58:28.247Z,969.57
2017-10-08T06:59:28.239Z,969.54
2017-10-08T07:00:28.233Z,969.59
2017-10-08T07:01:28.226Z,969.62
2017-10-08T07:02:28.217Z,969.57
2017-10-08T07:03:28.210Z,969.61
2017-10-08T07:04:28.203Z,969.61
2017-10-08T07:05:28.197Z,969.6
2017-10-08T07:06:28.190Z,969.67
2017-10-08T07:07:28.182Z,969.63
2017-10-08T07:08:28.173Z,969.65
2017-10-08T07:09:28.167Z,969.61
2017-10-08T07:10:28.158Z,969.67
2017-10-08T07:11:28.150Z,969.63
2017-10-08T07:12:28.144Z,969.67
2017-10-08T07:13:28.136Z,969.69
2017-10-08T07:14:28.129Z,969.71
2017-10-08T07:15:28.123Z,969.73
2017-10-08T07:16:28.114Z,969.71
2017-10-08T07:17:28.107Z,969.69
2017-10-08T07:18:28.099Z,969.73
2017-10-08T07:19:28.093Z,969.69
2017-10-08T07:20:28.086Z,969.76
2017-10-08T07:21:28.079Z,969.74
2017-10-08T07:22:28.070Z,969.78
2017-10-08T07:23:28.064Z,969.81
2017-10-08T07:24:28.156Z,969.82
2017-10-08T07:25:28.049Z,969.82
2017-10-08T07:26:28.142Z,969.85
2017-10-08T07:27:28.035Z,969.89
2017-10-08T07:28:28.026Z,969.88
2017-10-08T07:29:28.020Z,969.85
2017-10-08T07:30:28.012Z,969.84
2017-10-08T07:31:28.155Z,969.8
2017-10-08T07:32:27.998Z,969.82
2017-10-08T07:33:27.991Z,969.77
2017-10-08T07:34:27.983Z,969.76
2017-10-08T07:35:27.975Z,969.77
2017-10-08T07:36:27.968Z,969.79
2017-10-08T07:37:27.967Z,969.82
2017-10-08T07:38:27.953Z,969.79
2017-10-08T07:39:27.948Z,969.78
2017-10-08T07:40:27.939Z,969.82
2017-10-08T07:41:27.931Z,969.84
2017-10-08T07:42:27.927Z,969.88
2017-10-08T07:43:27.917Z,969.85
2017-10-08T07:44:27.909Z,969.9
2017-10-08T07:45:27.903Z,969.88
2017-10-08T07:46:27.894Z,969.87
2017-10-08T07:47:27.891Z,969.89
2017-10-08T07:48:27.881Z,969.88
2017-10-08T07:49:27.874Z,969.91
2017-10-08T07:50:27.866Z,969.93
2017-10-08T07:51:27.858Z,969.83
2017-10-08T07:52:27.853Z,969.89
2017-10-08T07:53:27.843Z,969.88
2017-10-08T07:54:27.837Z,969.93
2017-10-08T07:55:27.930Z,969.9
2017-10-08T07:56:27.923Z,969.9
2017-10-08T07:57:27.815Z,969.91
2017-10-08T07:58:27.809Z,969.94
2017-10-08T07:59:27.800Z,969.94
2017-10-08T08:00:27.792Z,969.91
2017-10-08T08:01:27.785Z,969.89
2017-10-08T08:02:27.778Z,969.96
2017-10-08T08:03:27.772Z,969.91
2017-10-08T08:04:27.764Z,969.95
2017-10-08T08:05:27.756Z,969.97
2017-10-08T08:06:27.748Z,969.96
2017-10-08T08:07:27.743Z,969.92
2017-10-08T08:08:27.735Z,969.97
2017-10-08T08:09:27.727Z,969.94
2017-10-08T08:10:27.721Z,969.97
2017-10-08T08:11:27.713Z,969.96
2017-10-08T08:12:27.805Z,969.97
2017-10-08T08:13:27.699Z,969.95
2017-10-08T08:14:27.691Z,969.99
2017-10-08T08:15:27.685Z,969.94
2017-10-08T08:16:27.776Z,969.97
2017-10-08T08:17:27.670Z,969.99
2017-10-08T08:18:27.812Z,969.97
2017-10-08T08:19:27.655Z,969.98
2017-10-08T08:20:27.648Z,969.98
2017-10-08T08:21:27.741Z,969.95
2017-10-08T08:22:27.634Z,969.95
2017-10-08T08:23:27.628Z,969.94
2017-10-08T08:24:27.619Z,969.97
2017-10-08T08:25:27.611Z,969.98
2017-10-08T08:26:27.606Z,970
2017-10-08T08:27:27.602Z,970.01
2017-10-08T08:28:27.591Z,970.02
2017-10-08T08:29:27.585Z,970.04
2017-10-08T08:30:27.678Z,970.04
2017-10-08T08:31:27.569Z,970.06
2017-10-08T08:32:27.563Z,970.02
2017-10-08T08:33:27.556Z,970.06
2017-10-08T08:34:27.548Z,970.06
2017-10-08T08:35:27.640Z,970.02
2017-10-08T08:36:27.534Z,970
2017-10-08T08:37:27.526Z,969.94
2017-10-08T08:38:27.519Z,969.99
2017-10-08T08:39:27.512Z,969.98
2017-10-08T08:40:27.505Z,969.97
2017-10-08T08:41:27.497Z,969.97
2017-10-08T08:42:27.490Z,969.93
2017-10-08T08:43:27.634Z,969.97
2017-10-08T08:44:27.476Z,969.96
2017-10-08T08:45:27.469Z,969.9
2017-10-08T08:46:27.461Z,969.94
2017-10-08T08:47:27.554Z,970.01
2017-10-08T08:48:27.448Z,970.04
2017-10-08T08:49:27.439Z,970.07
2017-10-08T08:50:27.432Z,970.05
2017-10-08T08:51:27.427Z,970.05
2017-10-08T08:52:27.418Z,970.02
2017-10-08T08:53:27.411Z,970.04
2017-10-08T08:54:27.404Z,970.03
2017-10-08T08:55:27.397Z,970.01
2017-10-08T08:56:27.389Z,970
2017-10-08T08:57:27.384Z,970.03
2017-10-08T08:58:27.477Z,970.01
2017-10-08T08:59:27.368Z,970.03
2017-10-08T09:00:27.361Z,970.02
2017-10-08T09:01:27.354Z,970.03
2017-10-08T09:02:27.350Z,970.03
2017-10-08T09:03:27.339Z,970.05
2017-10-08T09:04:27.331Z,970.07
2017-10-08T09:05:27.325Z,970.04
2017-10-08T09:06:27.319Z,970.06
2017-10-08T09:07:27.310Z,970.02
2017-10-08T09:08:27.303Z,970.08
2017-10-08T09:09:27.297Z,970.09
2017-10-08T09:10:27.291Z,970.07
2017-10-08T09:11:27.382Z,970.11
2017-10-08T09:12:27.274Z,970.09
2017-10-08T09:13:27.268Z,970.12
2017-10-08T09:14:27.260Z,970.12
2017-10-08T09:15:27.404Z,970.16
2017-10-08T09:16:27.347Z,970.17
2017-10-08T09:17:27.239Z,970.21
2017-10-08T09:18:27.232Z,970.19
2017-10-08T09:19:27.224Z,970.19
2017-10-08T09:20:27.217Z,970.16
2017-10-08T09:21:27.310Z,970.21
2017-10-08T09:22:27.202Z,970.19
2017-10-08T09:23:27.196Z,970.2
2017-10-08T09:24:27.189Z,970.22
2017-10-08T09:25:27.181Z,970.25
2017-10-08T09:26:27.174Z,970.2
2017-10-08T09:27:27.167Z,970.25
2017-10-08T09:28:27.160Z,970.17
2017-10-08T09:29:27.154Z,970.16
2017-10-08T09:30:27.144Z,970.18
2017-10-08T09:31:27.137Z,970.19
2017-10-08T09:32:27.131Z,970.15
2017-10-08T09:33:27.125Z,970.2
2017-10-08T09:34:27.116Z,970.17
2017-10-08T09:35:27.209Z,970.19
2017-10-08T09:36:27.102Z,970.16
2017-10-08T09:37:27.094Z,970.2
2017-10-08T09:38:27.089Z,970.18
2017-10-08T09:39:27.081Z,970.24
2017-10-08T09:40:27.073Z,970.23
2017-10-08T09:41:27.066Z,970.22
2017-10-08T09:42:27.059Z,970.23
2017-10-08T09:43:27.049Z,970.25
2017-10-08T09:44:27.044Z,970.21
2017-10-08T09:45:27.038Z,970.26
2017-10-08T09:46:27.130Z,970.18
2017-10-08T09:47:27.022Z,970.18
2017-10-08T09:48:27.015Z,970.21
2017-10-08T09:49:27.010Z,970.21
2017-10-08T09:50:27.104Z,970.25
2017-10-08T09:51:26.993Z,970.19
2017-10-08T09:52:27.017Z,970.21
2017-10-08T09:53:26.978Z,970.22
2017-10-08T09:54:26.971Z,970.23
2017-10-08T09:55:26.971Z,970.22
2017-10-08T09:56:26.959Z,970.22
2017-10-08T09:57:26.950Z,970.19
2017-10-08T09:58:26.943Z,970.19
2017-10-08T09:59:26.935Z,970.18
2017-10-08T10:00:26.929Z,970.21
2017-10-08T10:01:27.020Z,970.24
2017-10-08T10:02:26.914Z,970.2
2017-10-08T10:03:26.908Z,970.18
2017-10-08T10:04:26.900Z,970.2
2017-10-08T10:05:26.893Z,970.23
2017-10-08T10:06:26.986Z,970.23
2017-10-08T10:07:26.879Z,970.24
2017-10-08T10:08:27.021Z,970.26
2017-10-08T10:09:26.864Z,970.26
2017-10-08T10:10:26.858Z,970.22
2017-10-08T10:11:26.850Z,970.17
2017-10-08T10:12:26.842Z,970.23
2017-10-08T10:13:26.835Z,970.22
2017-10-08T10:14:26.828Z,970.2
2017-10-08T10:15:26.820Z,970.2
2017-10-08T10:16:26.813Z,970.22
2017-10-08T10:17:26.906Z,970.23
2017-10-08T10:18:26.899Z,970.29
2017-10-08T10:19:26.792Z,970.26
2017-10-08T10:20:26.784Z,970.26
2017-10-08T10:21:26.777Z,970.26
2017-10-08T10:22:26.770Z,970.28
2017-10-08T10:23:26.762Z,970.29
2017-10-08T10:24:26.756Z,970.26
2017-10-08T10:25:26.749Z,970.3
2017-10-08T10:26:26.742Z,970.31
2017-10-08T10:27:26.735Z,970.25
2017-10-08T10:28:26.726Z,970.32
2017-10-08T10:29:26.720Z,970.22
2017-10-08T10:30:26.863Z,970.26
2017-10-08T10:31:26.705Z,970.28
2017-10-08T10:32:26.699Z,970.29
2017-10-08T10:33:26.691Z,970.28
2017-10-08T10:34:26.683Z,970.33
2017-10-08T10:35:26.676Z,970.33
2017-10-08T10:36:26.670Z,970.31
2017-10-08T10:37:26.662Z,970.33
2017-10-08T10:38:26.653Z,970.32
2017-10-08T10:39:26.648Z,970.33
2017-10-08T10:40:26.641Z,970.35
2017-10-08T10:41:26.633Z,970.31
2017-10-08T10:42:26.626Z,970.3
2017-10-08T10:43:26.619Z,970.33
2017-10-08T10:44:26.610Z,970.29
2017-10-08T10:45:26.603Z,970.33
2017-10-08T10:46:26.596Z,970.33
2017-10-08T10:47:26.590Z,970.33
2017-10-08T10:48:26.583Z,970.35
2017-10-08T10:49:26.574Z,970.36
2017-10-08T10:50:26.668Z,970.4
2017-10-08T10:51:26.561Z,970.38
2017-10-08T10:52:26.553Z,970.42
2017-10-08T10:53:26.545Z,970.37
2017-10-08T10:54:26.639Z,970.4
2017-10-08T10:55:26.532Z,970.44
2017-10-08T10:56:26.523Z,970.4
2017-10-08T10:57:26.517Z,970.42
2017-10-08T10:58:26.510Z,970.43
2017-10-08T10:59:26.503Z,970.37
2017-10-08T11:00:26.495Z,970.39
2017-10-08T11:01:26.487Z,970.36
2017-10-08T11:02:26.485Z,970.36
2017-10-08T11:03:26.474Z,970.41
2017-10-08T11:04:26.466Z,970.42
2017-10-08T11:05:26.459Z,970.41
2017-10-08T11:06:26.457Z,970.41
2017-10-08T11:07:26.444Z,970.41
2017-10-08T11:08:26.437Z,970.42
2017-10-08T11:09:26.430Z,970.32
2017-10-08T11:10:26.423Z,970.36
2017-10-08T11:11:26.415Z,970.32
2017-10-08T11:12:26.408Z,970.36
2017-10-08T11:13:26.402Z,970.34
2017-10-08T11:14:26.395Z,970.31
2017-10-08T11:15:26.387Z,970.35
2017-10-08T11:16:26.381Z,970.34
2017-10-08T11:17:26.373Z,970.3
2017-10-08T11:18:26.365Z,970.3
2017-10-08T11:19:26.459Z,970.27
2017-10-08T11:20:26.351Z,970.25
2017-10-08T11:21:26.344Z,970.26
2017-10-08T11:22:26.336Z,970.26
2017-10-08T11:23:26.328Z,970.27
2017-10-08T11:24:26.323Z,970.28
2017-10-08T11:25:26.314Z,970.26
2017-10-08T11:26:26.308Z,970.22
2017-10-08T11:27:26.300Z,970.17
2017-10-08T11:28:26.294Z,970.22
2017-10-08T11:29:26.285Z,970.19
2017-10-08T11:30:26.279Z,970.16
2017-10-08T11:31:26.272Z,970.17
2017-10-08T11:32:26.265Z,970.12
2017-10-08T11:33:26.257Z,970.16
2017-10-08T11:34:26.249Z,970.14
2017-10-08T11:35:26.243Z,970.09
2017-10-08T11:36:26.236Z,970.11
2017-10-08T11:37:26.380Z,970.09
2017-10-08T11:38:26.221Z,970.09
2017-10-08T11:39:26.215Z,970.11
2017-10-08T11:40:26.207Z,970.1
2017-10-08T11:41:26.300Z,970.07
2017-10-08T11:42:26.194Z,970.09
2017-10-08T11:43:26.187Z,970.07
2017-10-08T11:44:26.184Z,970.03
2017-10-08T11:45:26.173Z,970.05
2017-10-08T11:46:26.165Z,970.01
2017-10-08T11:47:26.160Z,970.01
2017-10-08T11:48:26.150Z,970.02
2017-10-08T11:49:26.143Z,970.01
2017-10-08T11:50:26.236Z,969.99
2017-10-08T11:51:26.128Z,969.99
2017-10-08T11:52:26.138Z,970.01
2017-10-08T11:53:26.115Z,970.01
2017-10-08T11:54:26.109Z,970
2017-10-08T11:55:26.100Z,969.99
2017-10-08T11:56:26.095Z,970
2017-10-08T11:57:26.087Z,969.98
2017-10-08T11:58:26.078Z,969.98
2017-10-08T11:59:26.071Z,969.97
2017-10-08T12:00:26.065Z,969.94
2017-10-08T12:01:26.208Z,969.94
2017-10-08T12:02:26.050Z,969.94
2017-10-08T12:03:26.043Z,969.95
2017-10-08T12:04:26.037Z,969.94
2017-10-08T12:05:26.030Z,969.94
2017-10-08T12:06:26.122Z,969.88
2017-10-08T12:07:26.015Z,969.86
2017-10-08T12:08:26.008Z,969.9
2017-10-08T12:09:26.151Z,969.86
2017-10-08T12:10:25.993Z,969.87
2017-10-08T12:11:26.087Z,969.89
2017-10-08T12:12:25.981Z,969.86
2017-10-08T12:13:25.974Z,969.89
2017-10-08T12:14:25.965Z,969.88
2017-10-08T12:15:25.959Z,969.9
2017-10-08T12:16:25.951Z,969.9
2017-10-08T12:17:25.945Z,969.91
2017-10-08T12:18:25.939Z,969.91
2017-10-08T12:19:25.931Z,969.88
2017-10-08T12:20:25.923Z,969.89
2017-10-08T12:21:25.917Z,969.86
2017-10-08T12:22:25.911Z,969.84
2017-10-08T12:23:25.902Z,969.85
2017-10-08T12:24:25.893Z,969.87
2017-10-08T12:25:25.888Z,969.85
2017-10-08T12:26:25.980Z,969.86
2017-10-08T12:27:25.873Z,969.86
2017-10-08T12:28:25.867Z,969.91
2017-10-08T12:29:25.863Z,969.9
2017-10-08T12:30:25.852Z,969.91
2017-10-08T12:31:25.847Z,969.89